createdAt,value
2023-01-18T00:02:55.579Z,98422.55
2023-01-18T00:07:48.714Z,98418.56
2023-01-18T00:12:42.157Z,98420.69
2023-01-18T00:17:47.689Z,98413.92
2023-01-18T00:22:40.756Z,98411.11
2023-01-18T00:27:33.747Z,98409.90
2023-01-18T00:32:26.830Z,98403.66
2023-01-18T00:37:19.650Z,98399.05
2023-01-18T00:42:29.857Z,98395.63
2023-01-18T00:47:22.668Z,98387.05
2023-01-18T00:52:15.464Z,98388.70
2023-01-18T00:57:08.241Z,98375.83
2023-01-18T01:02:01.201Z,98365.14
2023-01-18T01:06:54.288Z,98356.34
2023-01-18T01:12:02.642Z,98353.16
2023-01-18T01:17:13.220Z,98350.14
2023-01-18T01:22:23.612Z,98352.06
2023-01-18T01:27:17.557Z,98345.42
2023-01-18T01:32:11.157Z,98343.23
2023-01-18T01:37:05.810Z,98340.37
2023-01-18T01:41:58.753Z,98330.00
2023-01-18T01:46:57.131Z,98332.59
2023-01-18T01:51:59.919Z,98340.80
2023-01-18T01:56:57.662Z,98356.48
2023-01-18T02:01:50.595Z,98358.54
2023-01-18T02:06:43.527Z,98355.52
2023-01-18T02:11:36.986Z,98355.42
2023-01-18T02:16:45.506Z,98353.60
2023-01-18T02:21:44.903Z,98355.83
2023-01-18T02:26:52.702Z,98351.95
2023-01-18T02:31:51.519Z,98352.71
2023-01-18T02:37:18.312Z,98356.05
2023-01-18T02:42:41.175Z,98344.70
2023-01-18T02:47:35.176Z,98330.10
2023-01-18T02:52:47.993Z,98332.04
2023-01-18T02:57:41.665Z,98327.34
2023-01-18T03:02:34.929Z,98319.52
2023-01-18T03:07:33.615Z,98309.18
2023-01-18T03:12:57.435Z,98301.04
2023-01-18T03:18:13.260Z,98287.45
2023-01-18T03:23:32.679Z,98274.34
2023-01-18T03:28:48.742Z,98257.86
2023-01-18T03:33:47.285Z,98248.87
2023-01-18T03:38:43.632Z,98239.38
2023-01-18T03:43:37.975Z,98228.84
2023-01-18T03:48:32.665Z,98218.99
2023-01-18T03:53:51.910Z,98210.34
2023-01-18T03:58:46.444Z,98197.42
2023-01-18T04:03:39.358Z,98184.00
2023-01-18T04:08:32.248Z,98172.59
2023-01-18T04:13:25.045Z,98153.20
2023-01-18T04:18:17.869Z,98136.33
2023-01-18T04:23:11.172Z,98145.40
2023-01-18T04:28:04.012Z,98144.08
2023-01-18T04:32:57.235Z,98157.94
2023-01-18T04:37:54.275Z,98159.34
2023-01-18T04:42:56.505Z,98158.86
2023-01-18T04:47:49.499Z,98156.85
2023-01-18T04:52:42.291Z,98156.90
2023-01-18T04:57:35.329Z,98153.87
2023-01-18T05:02:28.199Z,98152.38
2023-01-18T05:07:21.014Z,98152.23
2023-01-18T05:12:13.785Z,98152.60
2023-01-18T05:17:07.506Z,98149.05
2023-01-18T05:22:00.356Z,98148.56
2023-01-18T05:26:53.262Z,98146.02
2023-01-18T05:31:46.169Z,98149.30
2023-01-18T05:36:38.990Z,98142.48
2023-01-18T05:41:31.960Z,98128.33
2023-01-18T05:46:24.756Z,98106.80
2023-01-18T05:51:17.628Z,98096.71
2023-01-18T05:56:10.807Z,98075.70
2023-01-18T06:01:03.757Z,98054.50
2023-01-18T06:05:57.940Z,98038.45
2023-01-18T06:10:58.016Z,98026.51
2023-01-18T06:15:52.062Z,98021.73
2023-01-18T06:20:45.047Z,98025.65
2023-01-18T06:25:38.283Z,98030.79
2023-01-18T06:30:31.056Z,98029.27
2023-01-18T06:35:24.013Z,98025.70
2023-01-18T06:40:17.766Z,98016.15
2023-01-18T06:45:11.318Z,97999.77
2023-01-18T06:50:04.193Z,97991.59
2023-01-18T06:54:57.025Z,97981.18
2023-01-18T06:59:49.820Z,97968.72
2023-01-18T07:04:48.218Z,97978.65
2023-01-18T07:09:41.089Z,97967.91
2023-01-18T07:14:33.883Z,97976.29
2023-01-18T07:19:26.683Z,97991.85
2023-01-18T07:24:19.608Z,98006.54
2023-01-18T07:29:12.587Z,98007.60
2023-01-18T07:34:05.993Z,97999.59
2023-01-18T07:38:58.759Z,97981.33
2023-01-18T07:43:54.186Z,97984.43
2023-01-18T07:48:47.919Z,97982.41
2023-01-18T07:53:41.295Z,97982.77
2023-01-18T07:58:35.977Z,97989.77
2023-01-18T08:03:28.814Z,97986.54
2023-01-18T08:08:21.704Z,97977.36
2023-01-18T08:13:14.506Z,97970.91
2023-01-18T08:18:08.585Z,97974.30
2023-01-18T08:23:02.665Z,97969.90
2023-01-18T08:27:55.485Z,97956.98
2023-01-18T08:32:48.325Z,97941.80
2023-01-18T08:37:41.199Z,97934.98
2023-01-18T08:42:34.003Z,97925.26
2023-01-18T08:47:26.781Z,97925.06
2023-01-18T08:52:20.118Z,97935.98
2023-01-18T08:57:13.897Z,97969.65
2023-01-18T09:02:07.326Z,97968.45
2023-01-18T09:07:00.220Z,97967.23
2023-01-18T09:11:53.065Z,97963.63
2023-01-18T09:16:45.914Z,97950.96
2023-01-18T09:21:38.703Z,97954.38
2023-01-18T09:26:31.680Z,97941.42
2023-01-18T09:31:28.148Z,97924.35
2023-01-18T09:36:24.023Z,97908.13
2023-01-18T09:41:23.064Z,97905.03
2023-01-18T09:46:25.553Z,97889.30
2023-01-18T09:51:26.710Z,97881.95
2023-01-18T09:56:27.867Z,97881.27
2023-01-18T10:01:24.838Z,97889.48
2023-01-18T10:06:50.565Z,97898.34
2023-01-18T10:11:59.786Z,97894.92
2023-01-18T10:17:02.035Z,97879.71
2023-01-18T10:22:09.963Z,97895.80
2023-01-18T10:27:14.889Z,97902.46
2023-01-18T10:32:18.826Z,97901.79
2023-01-18T10:37:20.918Z,97875.64
2023-01-18T10:42:48.011Z,97855.99
2023-01-18T10:47:40.888Z,97868.80
2023-01-18T10:52:33.873Z,97870.02
2023-01-18T10:57:33.531Z,97850.55
2023-01-18T11:02:36.079Z,97829.70
2023-01-18T11:07:30.698Z,97826.26
2023-01-18T11:12:34.890Z,97819.59
2023-01-18T11:17:30.934Z,97813.09
2023-01-18T11:22:25.608Z,97809.33
2023-01-18T11:27:25.149Z,97817.88
2023-01-18T11:32:25.908Z,97828.32
2023-01-18T11:37:35.564Z,97841.83
2023-01-18T11:42:35.739Z,97847.30
2023-01-18T11:47:54.704Z,97849.35
2023-01-18T11:53:01.462Z,97857.02
2023-01-18T11:57:55.262Z,97849.31
2023-01-18T12:03:26.652Z,97843.49
2023-01-18T12:08:41.963Z,97836.48
2023-01-18T12:13:37.836Z,97837.49
2023-01-18T12:18:39.457Z,97840.42
2023-01-18T12:24:09.853Z,97834.28
2023-01-18T12:29:05.849Z,97839.41
2023-01-18T12:34:15.973Z,97829.12
2023-01-18T12:39:49.276Z,97832.56
2023-01-18T12:45:14.783Z,97835.16
2023-01-18T12:50:28.513Z,97851.05
2023-01-18T12:55:25.822Z,97871.16
2023-01-18T13:00:32.263Z,97881.19
2023-01-18T13:05:51.081Z,97885.94
2023-01-18T13:10:48.721Z,97882.52
2023-01-18T13:16:17.103Z,97892.45
2023-01-18T13:21:19.350Z,97898.25
2023-01-18T13:26:30.720Z,97905.42
2023-01-18T13:31:32.124Z,97908.49
2023-01-18T13:36:25.340Z,97911.71
2023-01-18T13:41:26.893Z,97913.75
2023-01-18T13:46:25.296Z,97917.16
2023-01-18T13:51:40.368Z,97925.85
2023-01-18T13:56:37.598Z,97936.38
2023-01-18T14:01:37.271Z,97943.88
2023-01-18T14:06:37.610Z,97950.16
2023-01-18T14:11:34.452Z,97956.29
2023-01-18T14:16:31.499Z,97955.55
2023-01-18T14:21:36.510Z,97961.15
2023-01-18T14:26:32.990Z,97967.08
2023-01-18T14:31:37.194Z,97966.04
2023-01-18T14:36:30.429Z,97970.77
2023-01-18T14:41:24.333Z,97986.10
2023-01-18T14:46:27.624Z,98001.95
2023-01-18T14:51:26.686Z,98011.48
2023-01-18T14:56:25.129Z,98021.36
2023-01-18T15:01:35.063Z,98027.69
2023-01-18T15:06:32.876Z,98034.35
2023-01-18T15:11:26.963Z,98043.57
2023-01-18T15:16:23.203Z,98060.98
2023-01-18T15:21:31.422Z,98079.23
2023-01-18T15:26:40.006Z,98094.42
2023-01-18T15:31:32.859Z,98104.35
2023-01-18T15:36:25.857Z,98104.04
2023-01-18T15:41:18.834Z,98112.60
2023-01-18T15:46:17.223Z,98126.06
2023-01-18T15:51:11.229Z,98145.52
2023-01-18T15:56:08.024Z,98165.64
2023-01-18T16:01:04.048Z,98180.12
2023-01-18T16:05:59.344Z,98200.09
2023-01-18T16:10:55.347Z,98215.48
2023-01-18T16:16:14.332Z,98217.20
2023-01-18T16:21:14.191Z,98224.20
2023-01-18T16:26:07.055Z,98256.80
2023-01-18T16:31:03.545Z,98268.76
2023-01-18T16:35:56.544Z,98272.50
2023-01-18T16:40:51.599Z,98279.32
2023-01-18T16:45:45.473Z,98287.00
2023-01-18T16:50:39.323Z,98299.96
2023-01-18T16:55:32.151Z,98311.41
2023-01-18T17:00:30.696Z,98319.61
2023-01-18T17:05:24.025Z,98322.66
2023-01-18T17:10:21.340Z,98336.14
2023-01-18T17:15:15.333Z,98346.39
2023-01-18T17:20:35.395Z,98355.77
2023-01-18T17:25:28.683Z,98375.39
2023-01-18T17:30:23.429Z,98386.52
2023-01-18T17:35:18.455Z,98396.22
2023-01-18T17:40:22.702Z,98411.60
2023-01-18T17:45:17.740Z,98429.52
2023-01-18T17:50:12.997Z,98441.16
2023-01-18T17:55:07.970Z,98454.64
2023-01-18T18:00:00.865Z,98463.02
2023-01-18T18:04:53.841Z,98479.21
2023-01-18T18:09:46.702Z,98488.63
2023-01-18T18:14:40.365Z,98500.19
2023-01-18T18:19:34.216Z,98506.83
2023-01-18T18:24:27.102Z,98515.48
2023-01-18T18:29:20.614Z,98525.25
2023-01-18T18:34:13.685Z,98536.52
2023-01-18T18:39:07.801Z,98547.46
2023-01-18T18:44:00.661Z,98563.52
2023-01-18T18:48:55.026Z,98591.15
2023-01-18T18:53:47.957Z,98604.66
2023-01-18T18:58:41.276Z,98617.64
2023-01-18T19:03:36.755Z,98634.73
2023-01-18T19:08:29.600Z,98647.17
2023-01-18T19:13:23.178Z,98662.05
2023-01-18T19:18:17.293Z,98672.30
2023-01-18T19:23:10.535Z,98684.09
2023-01-18T19:28:03.317Z,98705.11
2023-01-18T19:32:56.356Z,98710.07
2023-01-18T19:37:50.760Z,98714.67
2023-01-18T19:42:47.167Z,98723.91
2023-01-18T19:47:40.313Z,98732.91
2023-01-18T19:52:33.741Z,98750.01
2023-01-18T19:57:27.577Z,98753.77
2023-01-18T20:02:20.969Z,98764.89
2023-01-18T20:07:16.578Z,98769.69
2023-01-18T20:12:10.005Z,98775.63
2023-01-18T20:17:03.003Z,98802.80
2023-01-18T20:21:56.234Z,98820.73
2023-01-18T20:26:49.092Z,98831.49
2023-01-18T20:31:44.715Z,98838.36
2023-01-18T20:36:42.866Z,98852.72
2023-01-18T20:41:36.032Z,98868.94
2023-01-18T20:46:29.141Z,98878.62
2023-01-18T20:51:22.865Z,98885.80
2023-01-18T20:56:28.286Z,98887.52
2023-01-18T21:01:22.438Z,98904.63
2023-01-18T21:06:30.373Z,98915.42
2023-01-18T21:11:26.699Z,98946.38
2023-01-18T21:16:20.154Z,98978.13
2023-01-18T21:21:13.696Z,98982.04
2023-01-18T21:26:12.679Z,98981.89
2023-01-18T21:31:06.486Z,98966.75
2023-01-18T21:36:05.412Z,98946.25
2023-01-18T21:41:18.209Z,98958.59
2023-01-18T21:46:12.288Z,98974.69
2023-01-18T21:51:23.683Z,98986.16
2023-01-18T21:56:16.579Z,99004.99
2023-01-18T22:01:18.259Z,99029.61
2023-01-18T22:06:12.234Z,99050.95
2023-01-18T22:11:05.066Z,99081.55
2023-01-18T22:15:57.866Z,99076.60
2023-01-18T22:20:57.518Z,99066.91
2023-01-18T22:25:55.200Z,99081.95
2023-01-18T22:30:48.699Z,99104.02
2023-01-18T22:35:42.607Z,99107.48
2023-01-18T22:40:35.565Z,99103.80
2023-01-18T22:45:28.422Z,99104.13
2023-01-18T22:50:22.144Z,99107.91
2023-01-18T22:55:15.093Z,99118.34
2023-01-18T23:00:08.738Z,99113.37
2023-01-18T23:05:01.592Z,99117.66
2023-01-18T23:09:54.890Z,99124.55
2023-01-18T23:15:10.470Z,99134.12
2023-01-18T23:20:03.688Z,99145.94
2023-01-18T23:24:56.536Z,99148.70
2023-01-18T23:29:56.801Z,99159.15
2023-01-18T23:34:49.991Z,99184.13
2023-01-18T23:40:00.636Z,99202.77
2023-01-18T23:45:11.357Z,99204.61
2023-01-18T23:50:22.133Z,99219.50
2023-01-18T23:55:14.980Z,99243.26
